sensor_id;sensor_type;location;lat;lon;timestamp;P1;durP1;ratioP1;P2;durP2;ratioP2
58842;SDS011;44614;54.356;10.100;2022-08-11T00:00:42;2.70;;;1.38;;
58842;SDS011;44614;54.356;10.100;2022-08-11T00:03:11;3.90;;;1.80;;
58842;SDS011;44614;54.356;10.100;2022-08-11T00:05:51;1.95;;;1.48;;
58842;SDS011;44614;54.356;10.100;2022-08-11T00:10:52;3.45;;;2.33;;
58842;SDS011;44614;54.356;10.100;2022-08-11T00:13:20;8.05;;;2.08;;
58842;SDS011;44614;54.356;10.100;2022-08-11T00:15:47;2.67;;;1.20;;
58842;SDS011;44614;54.356;10.100;2022-08-11T00:18:13;1.88;;;1.25;;
58842;SDS011;44614;54.356;10.100;2022-08-11T00:20:41;2.40;;;1.27;;
58842;SDS011;44614;54.356;10.100;2022-08-11T00:23:13;2.78;;;1.52;;
58842;SDS011;44614;54.356;10.100;2022-08-11T00:25:45;4.15;;;1.20;;
58842;SDS011;44614;54.356;10.100;2022-08-11T00:28:29;4.13;;;1.30;;
58842;SDS011;44614;54.356;10.100;2022-08-11T00:30:57;2.83;;;1.45;;
58842;SDS011;44614;54.356;10.100;2022-08-11T00:33:29;2.60;;;1.40;;
58842;SDS011;44614;54.356;10.100;2022-08-11T00:35:58;3.90;;;1.27;;
58842;SDS011;44614;54.356;10.100;2022-08-11T00:38:27;3.80;;;1.55;;
58842;SDS011;44614;54.356;10.100;2022-08-11T00:43:50;2.53;;;1.25;;
58842;SDS011;44614;54.356;10.100;2022-08-11T00:49:02;3.40;;;1.55;;
58842;SDS011;44614;54.356;10.100;2022-08-11T00:51:42;2.47;;;1.05;;
58842;SDS011;44614;54.356;10.100;2022-08-11T01:00:23;4.22;;;1.38;;
58842;SDS011;44614;54.356;10.100;2022-08-11T01:08:40;3.03;;;1.48;;
58842;SDS011;44614;54.356;10.100;2022-08-11T01:11:44;2.20;;;1.58;;
58842;SDS011;44614;54.356;10.100;2022-08-11T01:14:21;4.20;;;1.50;;
58842;SDS011;44614;54.356;10.100;2022-08-11T01:28:34;4.35;;;1.60;;
58842;SDS011;44614;54.356;10.100;2022-08-11T01:40:27;2.90;;;1.45;;
58842;SDS011;44614;54.356;10.100;2022-08-11T01:48:43;4.97;;;2.53;;
58842;SDS011;44614;54.356;10.100;2022-08-11T01:57:23;3.92;;;2.00;;
58842;SDS011;44614;54.356;10.100;2022-08-11T02:00:15;2.95;;;1.67;;
58842;SDS011;44614;54.356;10.100;2022-08-11T02:02:47;3.75;;;1.40;;
58842;SDS011;44614;54.356;10.100;2022-08-11T02:19:41;4.53;;;1.40;;
58842;SDS011;44614;54.356;10.100;2022-08-11T02:25:49;6.22;;;1.52;;
58842;SDS011;44614;54.356;10.100;2022-08-11T02:28:26;3.80;;;1.60;;
58842;SDS011;44614;54.356;10.100;2022-08-11T02:31:07;4.35;;;1.60;;
58842;SDS011;44614;54.356;10.100;2022-08-11T02:33:56;4.07;;;1.58;;
58842;SDS011;44614;54.356;10.100;2022-08-11T02:36:37;2.67;;;1.58;;
58842;SDS011;44614;54.356;10.100;2022-08-11T02:39:09;2.47;;;1.52;;
58842;SDS011;44614;54.356;10.100;2022-08-11T02:41:41;2.95;;;1.75;;
58842;SDS011;44614;54.356;10.100;2022-08-11T02:47:47;8.18;;;2.35;;
58842;SDS011;44614;54.356;10.100;2022-08-11T02:50:40;4.10;;;2.28;;
58842;SDS011;44614;54.356;10.100;2022-08-11T02:53:16;2.83;;;1.60;;
58842;SDS011;44614;54.356;10.100;2022-08-11T02:58:48;2.38;;;1.48;;
58842;SDS011;44614;54.356;10.100;2022-08-11T03:02:01;5.25;;;1.83;;
58842;SDS011;44614;54.356;10.100;2022-08-11T03:04:49;3.65;;;1.50;;
58842;SDS011;44614;54.356;10.100;2022-08-11T03:07:33;4.75;;;2.03;;
58842;SDS011;44614;54.356;10.100;2022-08-11T03:12:52;3.22;;;1.52;;
58842;SDS011;44614;54.356;10.100;2022-08-11T03:21:35;5.95;;;2.55;;
58842;SDS011;44614;54.356;10.100;2022-08-11T03:24:28;2.58;;;1.63;;
58842;SDS011;44614;54.356;10.100;2022-08-11T03:27:06;3.58;;;1.95;;
58842;SDS011;44614;54.356;10.100;2022-08-11T03:35:31;4.10;;;1.80;;
58842;SDS011;44614;54.356;10.100;2022-08-11T03:38:05;7.47;;;2.40;;
58842;SDS011;44614;54.356;10.100;2022-08-11T03:43:44;3.60;;;2.10;;
58842;SDS011;44614;54.356;10.100;2022-08-11T03:49:47;4.82;;;2.05;;
58842;SDS011;44614;54.356;10.100;2022-08-11T03:56:36;3.72;;;1.90;;
58842;SDS011;44614;54.356;10.100;2022-08-11T04:01:36;3.70;;;2.13;;
58842;SDS011;44614;54.356;10.100;2022-08-11T04:32:27;3.92;;;1.83;;
58842;SDS011;44614;54.356;10.100;2022-08-11T04:50:14;5.68;;;1.70;;
58842;SDS011;44614;54.356;10.100;2022-08-11T05:16:16;4.18;;;1.85;;
58842;SDS011;44614;54.356;10.100;2022-08-11T05:19:02;5.47;;;2.42;;
58842;SDS011;44614;54.356;10.100;2022-08-11T05:21:52;6.75;;;2.78;;
58842;SDS011;44614;54.356;10.100;2022-08-11T05:24:42;4.38;;;2.03;;
58842;SDS011;44614;54.356;10.100;2022-08-11T05:27:31;3.75;;;2.20;;
58842;SDS011;44614;54.356;10.100;2022-08-11T05:30:22;5.15;;;2.38;;
58842;SDS011;44614;54.356;10.100;2022-08-11T05:33:11;5.68;;;2.10;;
58842;SDS011;44614;54.356;10.100;2022-08-11T05:36:07;5.57;;;2.28;;
58842;SDS011;44614;54.356;10.100;2022-08-11T05:38:39;4.03;;;1.98;;
58842;SDS011;44614;54.356;10.100;2022-08-11T05:41:37;5.82;;;2.70;;
58842;SDS011;44614;54.356;10.100;2022-08-11T05:44:23;4.50;;;2.85;;
58842;SDS011;44614;54.356;10.100;2022-08-11T05:47:09;6.28;;;2.25;;
58842;SDS011;44614;54.356;10.100;2022-08-11T05:49:53;6.93;;;2.33;;
58842;SDS011;44614;54.356;10.100;2022-08-11T05:52:37;8.55;;;2.00;;
58842;SDS011;44614;54.356;10.100;2022-08-11T05:55:22;4.05;;;2.08;;
58842;SDS011;44614;54.356;10.100;2022-08-11T05:58:07;3.53;;;2.33;;
58842;SDS011;44614;54.356;10.100;2022-08-11T06:00:41;4.57;;;2.53;;
58842;SDS011;44614;54.356;10.100;2022-08-11T06:03:09;5.75;;;2.45;;
58842;SDS011;44614;54.356;10.100;2022-08-11T06:05:37;4.93;;;2.35;;
58842;SDS011;44614;54.356;10.100;2022-08-11T06:10:37;6.95;;;2.40;;
58842;SDS011;44614;54.356;10.100;2022-08-11T06:13:05;5.18;;;2.63;;
58842;SDS011;44614;54.356;10.100;2022-08-11T06:15:32;5.40;;;2.42;;
58842;SDS011;44614;54.356;10.100;2022-08-11T06:18:08;6.72;;;2.58;;
58842;SDS011;44614;54.356;10.100;2022-08-11T06:20:42;6.07;;;2.42;;
58842;SDS011;44614;54.356;10.100;2022-08-11T06:23:20;7.18;;;2.65;;
58842;SDS011;44614;54.356;10.100;2022-08-11T06:25:47;7.45;;;2.10;;
58842;SDS011;44614;54.356;10.100;2022-08-11T06:28:15;4.40;;;2.20;;
58842;SDS011;44614;54.356;10.100;2022-08-11T06:30:44;2.60;;;1.75;;
58842;SDS011;44614;54.356;10.100;2022-08-11T06:33:57;6.03;;;1.85;;
58842;SDS011;44614;54.356;10.100;2022-08-11T06:38:49;3.20;;;1.70;;
58842;SDS011;44614;54.356;10.100;2022-08-11T06:44:28;3.53;;;1.75;;
58842;SDS011;44614;54.356;10.100;2022-08-11T06:47:03;5.15;;;1.92;;
58842;SDS011;44614;54.356;10.100;2022-08-11T06:49:32;3.67;;;1.70;;
58842;SDS011;44614;54.356;10.100;2022-08-11T06:52:19;1.85;;;1.63;;
58842;SDS011;44614;54.356;10.100;2022-08-11T06:54:55;3.08;;;1.60;;
58842;SDS011;44614;54.356;10.100;2022-08-11T06:57:29;2.75;;;1.45;;
58842;SDS011;44614;54.356;10.100;2022-08-11T07:00:19;4.43;;;2.00;;
58842;SDS011;44614;54.356;10.100;2022-08-11T07:02:57;4.40;;;2.08;;
58842;SDS011;44614;54.356;10.100;2022-08-11T07:11:46;4.18;;;1.83;;
58842;SDS011;44614;54.356;10.100;2022-08-11T07:14:52;3.70;;;1.55;;
58842;SDS011;44614;54.356;10.100;2022-08-11T07:17:42;4.05;;;1.30;;
58842;SDS011;44614;54.356;10.100;2022-08-11T07:20:34;1.63;;;1.45;;
58842;SDS011;44614;54.356;10.100;2022-08-11T07:23:19;2.83;;;1.77;;
58842;SDS011;44614;54.356;10.100;2022-08-11T07:26:10;3.53;;;1.35;;
58842;SDS011;44614;54.356;10.100;2022-08-11T07:28:56;4.32;;;1.88;;
58842;SDS011;44614;54.356;10.100;2022-08-11T07:32:10;3.80;;;1.80;;
58842;SDS011;44614;54.356;10.100;2022-08-11T07:34:34;4.07;;;1.17;;
58842;SDS011;44614;54.356;10.100;2022-08-11T07:39:37;2.45;;;1.42;;
58842;SDS011;44614;54.356;10.100;2022-08-11T07:42:05;2.42;;;1.23;;
58842;SDS011;44614;54.356;10.100;2022-08-11T07:44:32;5.28;;;1.75;;
58842;SDS011;44614;54.356;10.100;2022-08-11T07:47:19;5.15;;;1.42;;
58842;SDS011;44614;54.356;10.100;2022-08-11T07:50:04;3.83;;;1.42;;
58842;SDS011;44614;54.356;10.100;2022-08-11T07:52:50;4.00;;;1.35;;
58842;SDS011;44614;54.356;10.100;2022-08-11T07:55:18;4.78;;;1.60;;
58842;SDS011;44614;54.356;10.100;2022-08-11T07:57:46;4.63;;;1.77;;
58842;SDS011;44614;54.356;10.100;2022-08-11T08:00:47;4.13;;;1.63;;
58842;SDS011;44614;54.356;10.100;2022-08-11T08:03:34;5.57;;;1.50;;
58842;SDS011;44614;54.356;10.100;2022-08-11T08:06:19;3.28;;;1.52;;
58842;SDS011;44614;54.356;10.100;2022-08-11T08:09:04;2.03;;;1.25;;
58842;SDS011;44614;54.356;10.100;2022-08-11T08:11:50;4.97;;;1.60;;
58842;SDS011;44614;54.356;10.100;2022-08-11T08:14:34;4.05;;;1.90;;
58842;SDS011;44614;54.356;10.100;2022-08-11T08:17:20;7.25;;;1.42;;
58842;SDS011;44614;54.356;10.100;2022-08-11T08:20:05;3.13;;;1.38;;
58842;SDS011;44614;54.356;10.100;2022-08-11T08:22:35;6.32;;;1.42;;
58842;SDS011;44614;54.356;10.100;2022-08-11T08:27:26;2.22;;;1.17;;
58842;SDS011;44614;54.356;10.100;2022-08-11T08:32:38;5.65;;;1.42;;
58842;SDS011;44614;54.356;10.100;2022-08-11T08:35:06;3.25;;;1.67;;
58842;SDS011;44614;54.356;10.100;2022-08-11T08:37:34;2.85;;;1.48;;
58842;SDS011;44614;54.356;10.100;2022-08-11T08:42:25;5.60;;;1.48;;
58842;SDS011;44614;54.356;10.100;2022-08-11T08:45:06;3.28;;;1.40;;
58842;SDS011;44614;54.356;10.100;2022-08-11T08:47:35;5.28;;;1.50;;
58842;SDS011;44614;54.356;10.100;2022-08-11T08:50:07;3.38;;;1.15;;
58842;SDS011;44614;54.356;10.100;2022-08-11T08:55:08;2.25;;;1.20;;
58842;SDS011;44614;54.356;10.100;2022-08-11T08:57:41;3.80;;;1.50;;
58842;SDS011;44614;54.356;10.100;2022-08-11T09:00:09;4.97;;;1.67;;
58842;SDS011;44614;54.356;10.100;2022-08-11T09:02:38;6.65;;;1.70;;
58842;SDS011;44614;54.356;10.100;2022-08-11T09:05:04;3.60;;;1.58;;
58842;SDS011;44614;54.356;10.100;2022-08-11T09:07:31;2.38;;;1.30;;
58842;SDS011;44614;54.356;10.100;2022-08-11T09:09:58;3.85;;;1.30;;
58842;SDS011;44614;54.356;10.100;2022-08-11T09:12:25;3.50;;;1.30;;
58842;SDS011;44614;54.356;10.100;2022-08-11T09:14:53;1.83;;;1.08;;
58842;SDS011;44614;54.356;10.100;2022-08-11T09:17:39;3.53;;;1.70;;
58842;SDS011;44614;54.356;10.100;2022-08-11T09:20:09;2.53;;;1.40;;
58842;SDS011;44614;54.356;10.100;2022-08-11T09:22:37;4.45;;;1.40;;
58842;SDS011;44614;54.356;10.100;2022-08-11T09:25:25;4.15;;;1.20;;
58842;SDS011;44614;54.356;10.100;2022-08-11T09:30:37;4.13;;;1.20;;
58842;SDS011;44614;54.356;10.100;2022-08-11T09:33:05;3.60;;;1.25;;
58842;SDS011;44614;54.356;10.100;2022-08-11T09:35:34;1.15;;;1.02;;
58842;SDS011;44614;54.356;10.100;2022-08-11T09:38:03;3.17;;;1.52;;
58842;SDS011;44614;54.356;10.100;2022-08-11T09:40:48;4.72;;;1.38;;
58842;SDS011;44614;54.356;10.100;2022-08-11T09:43:16;4.30;;;2.47;;
58842;SDS011;44614;54.356;10.100;2022-08-11T09:46:02;2.67;;;1.20;;
58842;SDS011;44614;54.356;10.100;2022-08-11T09:48:36;4.63;;;1.33;;
58842;SDS011;44614;54.356;10.100;2022-08-11T09:51:04;3.60;;;1.35;;
58842;SDS011;44614;54.356;10.100;2022-08-11T09:53:36;4.85;;;1.20;;
58842;SDS011;44614;54.356;10.100;2022-08-11T09:56:03;5.38;;;1.40;;
58842;SDS011;44614;54.356;10.100;2022-08-11T09:58:49;7.00;;;1.63;;
58842;SDS011;44614;54.356;10.100;2022-08-11T10:01:16;1.98;;;1.20;;
58842;SDS011;44614;54.356;10.100;2022-08-11T10:03:55;4.40;;;1.50;;
58842;SDS011;44614;54.356;10.100;2022-08-11T10:06:25;2.65;;;1.45;;
58842;SDS011;44614;54.356;10.100;2022-08-11T10:09:11;4.25;;;1.33;;
58842;SDS011;44614;54.356;10.100;2022-08-11T10:11:42;5.90;;;1.77;;
58842;SDS011;44614;54.356;10.100;2022-08-11T10:14:08;3.13;;;1.73;;
58842;SDS011;44614;54.356;10.100;2022-08-11T10:16:53;4.68;;;1.23;;
58842;SDS011;44614;54.356;10.100;2022-08-11T10:19:19;4.60;;;1.20;;
58842;SDS011;44614;54.356;10.100;2022-08-11T10:21:55;3.13;;;1.55;;
58842;SDS011;44614;54.356;10.100;2022-08-11T10:24:40;3.17;;;1.30;;
58842;SDS011;44614;54.356;10.100;2022-08-11T10:27:27;4.80;;;1.13;;
58842;SDS011;44614;54.356;10.100;2022-08-11T10:29:53;4.78;;;1.25;;
58842;SDS011;44614;54.356;10.100;2022-08-11T10:32:38;1.98;;;1.17;;
58842;SDS011;44614;54.356;10.100;2022-08-11T10:35:22;4.03;;;1.13;;
58842;SDS011;44614;54.356;10.100;2022-08-11T10:37:50;2.58;;;1.30;;
58842;SDS011;44614;54.356;10.100;2022-08-11T10:40:17;2.50;;;0.95;;
58842;SDS011;44614;54.356;10.100;2022-08-11T10:42:51;3.88;;;1.92;;
58842;SDS011;44614;54.356;10.100;2022-08-11T10:45:37;2.70;;;0.80;;
58842;SDS011;44614;54.356;10.100;2022-08-11T10:48:24;2.28;;;1.27;;
58842;SDS011;44614;54.356;10.100;2022-08-11T10:50:52;1.65;;;1.00;;
58842;SDS011;44614;54.356;10.100;2022-08-11T10:53:38;2.90;;;0.90;;
58842;SDS011;44614;54.356;10.100;2022-08-11T10:56:26;1.38;;;0.80;;
58842;SDS011;44614;54.356;10.100;2022-08-11T10:59:13;1.95;;;1.08;;
58842;SDS011;44614;54.356;10.100;2022-08-11T11:01:40;3.22;;;0.80;;
58842;SDS011;44614;54.356;10.100;2022-08-11T11:04:17;1.42;;;1.00;;
58842;SDS011;44614;54.356;10.100;2022-08-11T11:07:21;5.85;;;0.80;;
58842;SDS011;44614;54.356;10.100;2022-08-11T11:09:55;2.13;;;1.70;;
58842;SDS011;44614;54.356;10.100;2022-08-11T11:12:23;3.25;;;1.08;;
58842;SDS011;44614;54.356;10.100;2022-08-11T11:15:19;1.63;;;0.95;;
58842;SDS011;44614;54.356;10.100;2022-08-11T11:18:06;3.42;;;1.23;;
58842;SDS011;44614;54.356;10.100;2022-08-11T11:36:50;2.97;;;1.02;;
58842;SDS011;44614;54.356;10.100;2022-08-11T11:39:20;2.00;;;1.10;;
58842;SDS011;44614;54.356;10.100;2022-08-11T11:41:51;1.90;;;1.02;;
58842;SDS011;44614;54.356;10.100;2022-08-11T11:44:19;2.28;;;1.33;;
58842;SDS011;44614;54.356;10.100;2022-08-11T11:46:47;2.28;;;0.88;;
58842;SDS011;44614;54.356;10.100;2022-08-11T11:49:15;2.90;;;0.73;;
58842;SDS011;44614;54.356;10.100;2022-08-11T11:51:46;2.55;;;1.00;;
58842;SDS011;44614;54.356;10.100;2022-08-11T11:54:13;1.45;;;0.93;;
58842;SDS011;44614;54.356;10.100;2022-08-11T11:56:40;1.35;;;0.90;;
58842;SDS011;44614;54.356;10.100;2022-08-11T11:59:07;2.45;;;1.38;;
58842;SDS011;44614;54.356;10.100;2022-08-11T12:01:53;3.03;;;0.80;;
58842;SDS011;44614;54.356;10.100;2022-08-11T12:04:20;4.43;;;1.15;;
58842;SDS011;44614;54.356;10.100;2022-08-11T12:06:46;0.90;;;0.80;;
58842;SDS011;44614;54.356;10.100;2022-08-11T12:09:12;2.15;;;0.68;;
58842;SDS011;44614;54.356;10.100;2022-08-11T12:11:42;3.42;;;0.93;;
58842;SDS011;44614;54.356;10.100;2022-08-11T12:14:27;1.52;;;0.88;;
58842;SDS011;44614;54.356;10.100;2022-08-11T12:16:53;2.92;;;1.17;;
58842;SDS011;44614;54.356;10.100;2022-08-11T12:19:22;4.43;;;0.95;;
58842;SDS011;44614;54.356;10.100;2022-08-11T12:21:48;4.50;;;0.90;;
58842;SDS011;44614;54.356;10.100;2022-08-11T12:24:33;2.75;;;0.93;;
58842;SDS011;44614;54.356;10.100;2022-08-11T12:27:18;0.88;;;0.63;;
58842;SDS011;44614;54.356;10.100;2022-08-11T12:29:48;3.25;;;1.08;;
58842;SDS011;44614;54.356;10.100;2022-08-11T12:32:18;1.38;;;0.93;;
58842;SDS011;44614;54.356;10.100;2022-08-11T12:34:45;1.05;;;0.57;;
58842;SDS011;44614;54.356;10.100;2022-08-11T12:37:11;2.25;;;0.90;;
58842;SDS011;44614;54.356;10.100;2022-08-11T12:39:38;2.17;;;1.00;;
58842;SDS011;44614;54.356;10.100;2022-08-11T12:42:32;3.45;;;0.88;;
58842;SDS011;44614;54.356;10.100;2022-08-11T12:45:17;2.60;;;0.82;;
58842;SDS011;44614;54.356;10.100;2022-08-11T12:48:36;0.90;;;0.50;;
58842;SDS011;44614;54.356;10.100;2022-08-11T12:51:02;1.58;;;0.70;;
58842;SDS011;44614;54.356;10.100;2022-08-11T12:53:53;3.90;;;0.90;;
58842;SDS011;44614;54.356;10.100;2022-08-11T12:56:21;2.05;;;1.00;;
58842;SDS011;44614;54.356;10.100;2022-08-11T12:59:08;1.42;;;0.80;;
58842;SDS011;44614;54.356;10.100;2022-08-11T13:01:52;2.35;;;0.80;;
58842;SDS011;44614;54.356;10.100;2022-08-11T13:04:37;1.25;;;0.75;;
58842;SDS011;44614;54.356;10.100;2022-08-11T13:07:23;1.88;;;0.80;;
58842;SDS011;44614;54.356;10.100;2022-08-11T13:09:50;1.30;;;0.90;;
58842;SDS011;44614;54.356;10.100;2022-08-11T13:12:16;5.30;;;1.00;;
58842;SDS011;44614;54.356;10.100;2022-08-11T13:15:01;2.88;;;1.00;;
58842;SDS011;44614;54.356;10.100;2022-08-11T13:17:27;2.95;;;1.00;;
58842;SDS011;44614;54.356;10.100;2022-08-11T13:19:54;1.35;;;0.57;;
58842;SDS011;44614;54.356;10.100;2022-08-11T13:22:22;1.40;;;0.70;;
58842;SDS011;44614;54.356;10.100;2022-08-11T13:24:50;0.95;;;0.65;;
58842;SDS011;44614;54.356;10.100;2022-08-11T13:27:19;1.83;;;0.70;;
58842;SDS011;44614;54.356;10.100;2022-08-11T13:29:46;4.05;;;0.93;;
58842;SDS011;44614;54.356;10.100;2022-08-11T13:32:13;3.15;;;1.08;;
58842;SDS011;44614;54.356;10.100;2022-08-11T13:34:40;3.50;;;0.85;;
58842;SDS011;44614;54.356;10.100;2022-08-11T13:37:08;1.48;;;0.93;;
58842;SDS011;44614;54.356;10.100;2022-08-11T13:39:36;0.98;;;0.70;;
58842;SDS011;44614;54.356;10.100;2022-08-11T13:42:11;3.10;;;0.85;;
58842;SDS011;44614;54.356;10.100;2022-08-11T13:44:40;3.22;;;1.20;;
58842;SDS011;44614;54.356;10.100;2022-08-11T13:47:07;2.08;;;0.70;;
58842;SDS011;44614;54.356;10.100;2022-08-11T13:49:37;2.17;;;0.82;;
58842;SDS011;44614;54.356;10.100;2022-08-11T13:52:05;3.47;;;0.80;;
58842;SDS011;44614;54.356;10.100;2022-08-11T13:54:34;1.50;;;0.80;;
58842;SDS011;44614;54.356;10.100;2022-08-11T13:57:05;2.40;;;0.90;;
58842;SDS011;44614;54.356;10.100;2022-08-11T13:59:32;4.68;;;0.70;;
58842;SDS011;44614;54.356;10.100;2022-08-11T14:01:59;2.70;;;0.90;;
58842;SDS011;44614;54.356;10.100;2022-08-11T14:06:57;1.05;;;0.75;;
58842;SDS011;44614;54.356;10.100;2022-08-11T14:09:27;2.67;;;0.98;;
58842;SDS011;44614;54.356;10.100;2022-08-11T14:11:57;1.48;;;0.60;;
58842;SDS011;44614;54.356;10.100;2022-08-11T14:15:06;1.00;;;0.55;;
58842;SDS011;44614;54.356;10.100;2022-08-11T14:17:55;2.25;;;0.60;;
58842;SDS011;44614;54.356;10.100;2022-08-11T14:20:27;2.17;;;0.70;;
58842;SDS011;44614;54.356;10.100;2022-08-11T14:23:14;2.45;;;0.88;;
58842;SDS011;44614;54.356;10.100;2022-08-11T14:25:41;2.13;;;1.08;;
58842;SDS011;44614;54.356;10.100;2022-08-11T14:28:27;1.02;;;0.80;;
58842;SDS011;44614;54.356;10.100;2022-08-11T14:30:53;2.22;;;1.05;;
58842;SDS011;44614;54.356;10.100;2022-08-11T14:33:19;1.55;;;0.70;;
58842;SDS011;44614;54.356;10.100;2022-08-11T14:35:45;1.42;;;0.52;;
58842;SDS011;44614;54.356;10.100;2022-08-11T14:38:11;1.38;;;0.52;;
58842;SDS011;44614;54.356;10.100;2022-08-11T14:40:36;0.95;;;0.70;;
58842;SDS011;44614;54.356;10.100;2022-08-11T14:43:20;1.17;;;0.70;;
58842;SDS011;44614;54.356;10.100;2022-08-11T14:46:05;2.30;;;0.70;;
58842;SDS011;44614;54.356;10.100;2022-08-11T14:48:49;3.15;;;0.80;;
58842;SDS011;44614;54.356;10.100;2022-08-11T14:51:17;1.08;;;0.57;;
58842;SDS011;44614;54.356;10.100;2022-08-11T14:53:46;1.00;;;0.70;;
58842;SDS011;44614;54.356;10.100;2022-08-11T14:56:11;0.80;;;0.50;;
58842;SDS011;44614;54.356;10.100;2022-08-11T14:58:56;2.30;;;0.70;;
58842;SDS011;44614;54.356;10.100;2022-08-11T15:01:21;4.82;;;0.85;;
58842;SDS011;44614;54.356;10.100;2022-08-11T15:04:05;3.08;;;0.90;;
58842;SDS011;44614;54.356;10.100;2022-08-11T15:06:31;2.13;;;0.60;;
58842;SDS011;44614;54.356;10.100;2022-08-11T15:08:57;3.67;;;0.80;;
58842;SDS011;44614;54.356;10.100;2022-08-11T15:11:23;2.97;;;0.80;;
58842;SDS011;44614;54.356;10.100;2022-08-11T15:14:12;4.03;;;0.93;;
58842;SDS011;44614;54.356;10.100;2022-08-11T15:16:42;0.57;;;0.57;;
58842;SDS011;44614;54.356;10.100;2022-08-11T15:19:28;2.45;;;0.90;;
58842;SDS011;44614;54.356;10.100;2022-08-11T15:21:55;2.72;;;0.90;;
58842;SDS011;44614;54.356;10.100;2022-08-11T15:24:39;1.10;;;0.70;;
58842;SDS011;44614;54.356;10.100;2022-08-11T15:27:08;2.35;;;0.68;;
58842;SDS011;44614;54.356;10.100;2022-08-11T15:30:00;3.63;;;1.05;;
58842;SDS011;44614;54.356;10.100;2022-08-11T15:32:46;3.28;;;1.65;;
58842;SDS011;44614;54.356;10.100;2022-08-11T15:35:32;1.55;;;0.90;;
58842;SDS011;44614;54.356;10.100;2022-08-11T15:38:19;1.45;;;0.98;;
58842;SDS011;44614;54.356;10.100;2022-08-11T15:40:46;4.13;;;0.80;;
58842;SDS011;44614;54.356;10.100;2022-08-11T15:43:33;3.05;;;1.20;;
58842;SDS011;44614;54.356;10.100;2022-08-11T15:46:30;3.20;;;1.20;;
58842;SDS011;44614;54.356;10.100;2022-08-11T15:53:58;6.57;;;1.10;;
58842;SDS011;44614;54.356;10.100;2022-08-11T15:56:29;2.00;;;1.13;;
58842;SDS011;44614;54.356;10.100;2022-08-11T15:58:56;1.20;;;0.77;;
58842;SDS011;44614;54.356;10.100;2022-08-11T16:01:43;1.33;;;0.75;;
58842;SDS011;44614;54.356;10.100;2022-08-11T16:04:30;2.97;;;1.05;;
58842;SDS011;44614;54.356;10.100;2022-08-11T16:07:06;1.92;;;0.90;;
58842;SDS011;44614;54.356;10.100;2022-08-11T16:09:40;0.95;;;0.70;;
58842;SDS011;44614;54.356;10.100;2022-08-11T16:12:13;1.90;;;0.95;;
58842;SDS011;44614;54.356;10.100;2022-08-11T16:14:42;2.97;;;0.95;;
58842;SDS011;44614;54.356;10.100;2022-08-11T16:17:30;2.42;;;0.73;;
58842;SDS011;44614;54.356;10.100;2022-08-11T16:20:00;0.70;;;0.70;;
58842;SDS011;44614;54.356;10.100;2022-08-11T16:22:31;4.78;;;1.15;;
58842;SDS011;44614;54.356;10.100;2022-08-11T16:25:01;7.22;;;0.98;;
58842;SDS011;44614;54.356;10.100;2022-08-11T16:27:30;1.90;;;0.60;;
58842;SDS011;44614;54.356;10.100;2022-08-11T16:29:58;2.20;;;1.27;;
58842;SDS011;44614;54.356;10.100;2022-08-11T16:32:25;2.83;;;0.95;;
58842;SDS011;44614;54.356;10.100;2022-08-11T16:35:02;1.48;;;1.27;;
58842;SDS011;44614;54.356;10.100;2022-08-11T16:37:51;1.63;;;0.70;;
58842;SDS011;44614;54.356;10.100;2022-08-11T16:40:37;3.43;;;0.90;;
58842;SDS011;44614;54.356;10.100;2022-08-11T16:43:04;1.20;;;0.90;;
58842;SDS011;44614;54.356;10.100;2022-08-11T16:45:51;2.28;;;1.10;;
58842;SDS011;44614;54.356;10.100;2022-08-11T16:48:37;1.17;;;0.80;;
58842;SDS011;44614;54.356;10.100;2022-08-11T16:51:05;0.90;;;0.75;;
58842;SDS011;44614;54.356;10.100;2022-08-11T16:53:32;2.88;;;0.98;;
58842;SDS011;44614;54.356;10.100;2022-08-11T16:55:58;3.08;;;1.27;;
58842;SDS011;44614;54.356;10.100;2022-08-11T16:58:29;2.67;;;0.90;;
58842;SDS011;44614;54.356;10.100;2022-08-11T17:01:15;1.70;;;1.00;;
58842;SDS011;44614;54.356;10.100;2022-08-11T17:03:43;1.73;;;1.05;;
58842;SDS011;44614;54.356;10.100;2022-08-11T17:06:29;1.58;;;0.98;;
58842;SDS011;44614;54.356;10.100;2022-08-11T17:09:17;1.25;;;0.85;;
58842;SDS011;44614;54.356;10.100;2022-08-11T17:12:05;2.78;;;0.80;;
58842;SDS011;44614;54.356;10.100;2022-08-11T17:14:53;4.90;;;1.23;;
58842;SDS011;44614;54.356;10.100;2022-08-11T17:17:43;3.20;;;1.20;;
58842;SDS011;44614;54.356;10.100;2022-08-11T17:20:09;1.35;;;0.85;;
58842;SDS011;44614;54.356;10.100;2022-08-11T17:22:39;1.77;;;0.80;;
58842;SDS011;44614;54.356;10.100;2022-08-11T17:25:25;2.53;;;0.80;;
58842;SDS011;44614;54.356;10.100;2022-08-11T17:27:52;2.50;;;0.90;;
58842;SDS011;44614;54.356;10.100;2022-08-11T17:30:19;1.65;;;0.55;;
58842;SDS011;44614;54.356;10.100;2022-08-11T17:33:07;1.17;;;0.73;;
58842;SDS011;44614;54.356;10.100;2022-08-11T17:35:54;1.50;;;0.63;;
58842;SDS011;44614;54.356;10.100;2022-08-11T17:38:20;4.53;;;1.27;;
58842;SDS011;44614;54.356;10.100;2022-08-11T17:40:50;1.85;;;0.60;;
58842;SDS011;44614;54.356;10.100;2022-08-11T17:43:37;2.58;;;1.30;;
58842;SDS011;44614;54.356;10.100;2022-08-11T17:46:22;2.67;;;1.20;;
58842;SDS011;44614;54.356;10.100;2022-08-11T17:49:08;3.78;;;1.30;;
58842;SDS011;44614;54.356;10.100;2022-08-11T17:51:36;1.58;;;1.10;;
58842;SDS011;44614;54.356;10.100;2022-08-11T17:54:22;3.22;;;1.10;;
58842;SDS011;44614;54.356;10.100;2022-08-11T17:57:07;1.30;;;0.80;;
58842;SDS011;44614;54.356;10.100;2022-08-11T17:59:52;3.08;;;0.93;;
58842;SDS011;44614;54.356;10.100;2022-08-11T18:02:32;1.55;;;0.55;;
58842;SDS011;44614;54.356;10.100;2022-08-11T18:05:19;1.25;;;0.73;;
58842;SDS011;44614;54.356;10.100;2022-08-11T18:07:45;2.35;;;0.70;;
58842;SDS011;44614;54.356;10.100;2022-08-11T18:10:33;6.45;;;1.58;;
58842;SDS011;44614;54.356;10.100;2022-08-11T18:13:20;2.42;;;1.10;;
58842;SDS011;44614;54.356;10.100;2022-08-11T18:16:06;2.53;;;0.73;;
58842;SDS011;44614;54.356;10.100;2022-08-11T18:18:51;3.08;;;1.00;;
58842;SDS011;44614;54.356;10.100;2022-08-11T18:21:36;2.72;;;0.88;;
58842;SDS011;44614;54.356;10.100;2022-08-11T18:24:22;2.00;;;0.70;;
58842;SDS011;44614;54.356;10.100;2022-08-11T18:27:10;0.50;;;0.50;;
58842;SDS011;44614;54.356;10.100;2022-08-11T18:29:57;0.82;;;0.80;;
58842;SDS011;44614;54.356;10.100;2022-08-11T18:32:46;10.30;;;1.00;;
58842;SDS011;44614;54.356;10.100;2022-08-11T18:35:32;0.45;;;0.38;;
58842;SDS011;44614;54.356;10.100;2022-08-11T18:38:18;1.63;;;0.82;;
58842;SDS011;44614;54.356;10.100;2022-08-11T18:41:06;1.75;;;0.93;;
58842;SDS011;44614;54.356;10.100;2022-08-11T18:43:53;3.13;;;0.98;;
58842;SDS011;44614;54.356;10.100;2022-08-11T18:46:40;3.03;;;1.00;;
58842;SDS011;44614;54.356;10.100;2022-08-11T18:49:28;3.03;;;0.90;;
58842;SDS011;44614;54.356;10.100;2022-08-11T18:52:17;1.50;;;0.63;;
58842;SDS011;44614;54.356;10.100;2022-08-11T18:55:02;4.35;;;1.33;;
58842;SDS011;44614;54.356;10.100;2022-08-11T18:57:50;4.50;;;0.80;;
58842;SDS011;44614;54.356;10.100;2022-08-11T19:00:36;2.45;;;1.23;;
58842;SDS011;44614;54.356;10.100;2022-08-11T19:03:21;4.28;;;1.15;;
58842;SDS011;44614;54.356;10.100;2022-08-11T19:06:07;4.20;;;1.00;;
58842;SDS011;44614;54.356;10.100;2022-08-11T19:08:56;3.88;;;1.00;;
58842;SDS011;44614;54.356;10.100;2022-08-11T19:11:44;1.42;;;1.08;;
58842;SDS011;44614;54.356;10.100;2022-08-11T19:14:29;1.38;;;0.95;;
58842;SDS011;44614;54.356;10.100;2022-08-11T19:17:14;3.10;;;1.13;;